LTCI

Van Ferit Melen Airport

Van, Turkey
TAF LTCI 210740Z 2109/2118 27008KT CAVOK BECMG 2109/2110 FEW040
Issued Valid From Valid To
Jul-21 @ 07:40 UTC
(2 hours ago)
Jul-21 @ 09:00 UTC
(44 minutes ago)
Jul-21 @ 18:00 UTC
(in 8 hours)
Jul-21 @ 09:00 to Jul-21 @ 18:00
TAF LTCI 210740Z 2109/2118 27008KT CAVOK
Wind Visibility Clouds Conditions
270° at 8 knots 10,000+ meters
  • No significant clouds
Becoming Jul-21 @ 09:00 to Jul-21 @ 18:00
BECMG 2109/2110 FEW040
Wind Visibility Clouds Conditions
270° at 8 knots 10,000+ meters
  • Few at 4,000' AGL
TAF LTCI 210740Z 2109/2118 27008KT CAVOK BECMG 2109/2110 FEW040
Issued Jul-21 @ 07:40 UTC
(2 hours ago)
Valid From Jul-21 @ 09:00 UTC
(44 minutes ago)
Valid To Jul-21 @ 18:00 UTC
(in 8 hours)
Jul-21 @ 09:00 - Jul-21 @ 18:00
Wind Visibility
270° at 8 knots 10,000+ meters
Clouds
  • No significant clouds
Conditions
Becoming Jul-21 @ 09:00 - Jul-21 @ 18:00
Wind Visibility
270° at 8 knots 10,000+ meters
Clouds
  • Few at 4,000' AGL
Conditions